createdAt,value
2023-05-01T00:00:52.226Z,0.39
2023-05-01T00:01:52.209Z,0.34
2023-05-01T00:02:52.281Z,0.34
2023-05-01T00:03:52.704Z,0.34
2023-05-01T00:04:52.275Z,0.34
2023-05-01T00:05:52.217Z,0.36
2023-05-01T00:06:52.420Z,0.39
2023-05-01T00:07:52.219Z,0.43
2023-05-01T00:08:52.227Z,0.49
2023-05-01T00:09:52.237Z,0.50
2023-05-01T00:10:52.280Z,0.51
2023-05-01T00:11:52.263Z,0.51
2023-05-01T00:12:52.266Z,0.50
2023-05-01T00:13:52.272Z,0.50
2023-05-01T00:14:52.280Z,0.50
2023-05-01T00:15:52.357Z,0.50
2023-05-01T00:16:52.466Z,0.50
2023-05-01T00:17:52.339Z,0.50
2023-05-01T00:18:52.329Z,0.50
2023-05-01T00:19:52.356Z,0.50
2023-05-01T00:20:52.347Z,0.50
2023-05-01T00:21:52.377Z,0.50
2023-05-01T00:22:52.372Z,0.51
2023-05-01T00:23:52.384Z,0.50
2023-05-01T00:24:52.386Z,0.50
2023-05-01T00:25:52.398Z,0.50
2023-05-01T00:26:52.443Z,0.50
2023-05-01T00:27:52.405Z,0.50
2023-05-01T00:28:52.434Z,0.51
2023-05-01T00:29:52.438Z,0.50
2023-05-01T00:30:52.441Z,0.50
2023-05-01T00:31:52.482Z,0.51
2023-05-01T00:32:52.485Z,0.50
2023-05-01T00:33:52.482Z,0.51
2023-05-01T00:34:52.494Z,0.50
2023-05-01T00:35:52.500Z,0.50
2023-05-01T00:36:52.522Z,0.51
2023-05-01T00:37:52.529Z,0.51
2023-05-01T00:38:52.551Z,0.51
2023-05-01T00:39:52.566Z,0.52
2023-05-01T00:40:52.565Z,0.51
2023-05-01T00:41:52.585Z,0.51
2023-05-01T00:42:52.619Z,0.51
2023-05-01T00:43:52.633Z,0.51
2023-05-01T00:44:52.614Z,0.51
2023-05-01T00:45:52.711Z,0.51
2023-05-01T00:46:52.649Z,0.51
2023-05-01T00:47:52.717Z,0.51
2023-05-01T00:48:52.704Z,0.51
2023-05-01T00:49:52.745Z,0.51
2023-05-01T00:50:52.697Z,0.51
2023-05-01T00:51:52.722Z,0.50
2023-05-01T00:52:52.716Z,0.51
2023-05-01T00:53:52.734Z,0.50
2023-05-01T00:54:52.753Z,0.51
2023-05-01T00:55:52.770Z,0.51
2023-05-01T00:56:52.791Z,0.50
2023-05-01T00:57:52.799Z,0.51
2023-05-01T00:58:52.963Z,0.52
2023-05-01T00:59:52.829Z,0.50
2023-05-01T01:00:52.880Z,0.50
2023-05-01T01:01:54.969Z,0.51
2023-05-01T01:02:52.898Z,0.51
2023-05-01T01:03:52.878Z,0.50
2023-05-01T01:04:52.892Z,0.50
2023-05-01T01:05:52.842Z,0.51
2023-05-01T01:06:52.827Z,0.50
2023-05-01T01:07:52.826Z,0.50
2023-05-01T01:08:52.813Z,0.50
2023-05-01T01:09:52.827Z,0.50
2023-05-01T01:10:52.823Z,0.50
2023-05-01T01:11:52.816Z,0.51
2023-05-01T01:12:52.791Z,0.50
2023-05-01T01:13:52.784Z,0.51
2023-05-01T01:14:52.807Z,0.51
2023-05-01T01:15:52.774Z,0.52
2023-05-01T01:16:52.807Z,0.51
2023-05-01T01:17:52.842Z,0.51
2023-05-01T01:18:52.754Z,0.51
2023-05-01T01:19:52.805Z,0.51
2023-05-01T01:20:52.742Z,0.52
2023-05-01T01:21:52.727Z,0.51
2023-05-01T01:22:52.729Z,0.52
2023-05-01T01:23:52.724Z,0.51
2023-05-01T01:24:52.719Z,0.51
2023-05-01T01:25:52.709Z,0.51
2023-05-01T01:26:52.702Z,0.51
2023-05-01T01:27:52.689Z,0.52
2023-05-01T01:28:52.687Z,0.52
2023-05-01T01:29:52.676Z,0.51
2023-05-01T01:30:52.772Z,0.51
2023-05-01T01:31:52.665Z,0.52
2023-05-01T01:32:52.715Z,0.52
2023-05-01T01:33:52.669Z,0.51
2023-05-01T01:34:52.643Z,0.51
2023-05-01T01:35:52.635Z,0.51
2023-05-01T01:36:52.644Z,0.51
2023-05-01T01:37:52.625Z,0.51
2023-05-01T01:38:52.630Z,0.51
2023-05-01T01:39:52.629Z,0.52
2023-05-01T01:40:52.605Z,0.51
2023-05-01T01:41:52.648Z,0.51
2023-05-01T01:42:52.591Z,0.52
2023-05-01T01:43:52.584Z,0.51
2023-05-01T01:44:52.573Z,0.51
2023-05-01T01:45:52.602Z,0.52
2023-05-01T01:46:52.593Z,0.51
2023-05-01T01:47:52.604Z,0.51
2023-05-01T01:48:52.608Z,0.50
2023-05-01T01:49:52.600Z,0.51
2023-05-01T01:50:52.616Z,0.51
2023-05-01T01:51:52.639Z,0.51
2023-05-01T01:52:52.657Z,0.51
2023-05-01T01:53:52.676Z,0.51
2023-05-01T01:54:52.698Z,0.51
2023-05-01T01:55:52.736Z,0.51
2023-05-01T01:56:52.736Z,0.51
2023-05-01T01:57:52.768Z,0.51
2023-05-01T01:58:52.777Z,0.51
2023-05-01T01:59:52.855Z,0.51
2023-05-01T02:00:52.813Z,0.50
2023-05-01T02:01:52.853Z,0.50
2023-05-01T02:02:53.075Z,0.50
2023-05-01T02:03:52.937Z,0.51
2023-05-01T02:04:52.901Z,0.51
2023-05-01T02:05:52.916Z,0.50
2023-05-01T02:06:52.996Z,0.51
2023-05-01T02:07:52.967Z,0.51
2023-05-01T02:08:52.988Z,0.51
2023-05-01T02:09:53.011Z,0.51
2023-05-01T02:10:53.033Z,0.51
2023-05-01T02:11:53.060Z,0.50
2023-05-01T02:12:53.087Z,0.52
2023-05-01T02:13:53.112Z,0.51
2023-05-01T02:14:53.145Z,0.52
2023-05-01T02:15:53.217Z,0.52
2023-05-01T02:16:53.194Z,0.50
2023-05-01T02:17:53.398Z,0.52
2023-05-01T02:18:53.255Z,0.51
2023-05-01T02:19:53.477Z,0.51
2023-05-01T02:20:53.282Z,0.51
2023-05-01T02:21:53.307Z,0.50
2023-05-01T02:22:53.366Z,0.51
2023-05-01T02:23:53.358Z,0.50
2023-05-01T02:24:53.378Z,0.52
2023-05-01T02:25:53.415Z,0.51
2023-05-01T02:26:53.421Z,0.51
2023-05-01T02:27:53.457Z,0.51
2023-05-01T02:28:53.491Z,0.50
2023-05-01T02:29:53.713Z,0.51
2023-05-01T02:30:53.539Z,0.52
2023-05-01T02:31:53.699Z,0.50
2023-05-01T02:32:53.688Z,0.52
2023-05-01T02:33:53.601Z,0.52
2023-05-01T02:34:53.655Z,0.52
2023-05-01T02:35:53.666Z,0.52
2023-05-01T02:36:53.688Z,0.52
2023-05-01T02:37:53.731Z,0.52
2023-05-01T02:38:53.728Z,0.51
2023-05-01T02:39:53.797Z,0.51
2023-05-01T02:40:53.782Z,0.52
2023-05-01T02:41:53.796Z,0.51
2023-05-01T02:42:53.822Z,0.51
2023-05-01T02:43:53.842Z,0.51
2023-05-01T02:44:53.875Z,0.52
2023-05-01T02:45:53.922Z,0.52
2023-05-01T02:46:53.987Z,0.51
2023-05-01T02:47:54.098Z,0.50
2023-05-01T02:48:53.971Z,0.52
2023-05-01T02:49:54.262Z,0.51
2023-05-01T02:50:54.048Z,0.52
2023-05-01T02:51:54.043Z,0.51
2023-05-01T02:52:54.136Z,0.51
2023-05-01T02:53:54.102Z,0.51
2023-05-01T02:54:54.475Z,0.51
2023-05-01T02:55:54.147Z,0.51
2023-05-01T02:56:54.168Z,0.50
2023-05-01T02:57:54.186Z,0.51
2023-05-01T02:58:54.212Z,0.53
2023-05-01T02:59:54.459Z,0.51
2023-05-01T03:00:54.285Z,0.52
2023-05-01T03:01:54.287Z,0.51
2023-05-01T03:02:54.307Z,0.51
2023-05-01T03:03:54.336Z,0.52
2023-05-01T03:04:54.344Z,0.51
2023-05-01T03:05:54.378Z,0.51
2023-05-01T03:06:54.433Z,0.51
2023-05-01T03:07:54.440Z,0.50
2023-05-01T03:08:54.465Z,0.50
2023-05-01T03:09:54.770Z,0.52
2023-05-01T03:10:54.510Z,0.51
2023-05-01T03:11:54.532Z,0.51
2023-05-01T03:12:54.569Z,0.52
2023-05-01T03:13:54.590Z,0.52
2023-05-01T03:14:54.626Z,0.51
2023-05-01T03:15:54.668Z,0.51
2023-05-01T03:16:54.820Z,0.51
2023-05-01T03:17:54.763Z,0.50
2023-05-01T03:18:54.734Z,0.51
2023-05-01T03:19:55.179Z,0.50
2023-05-01T03:20:54.784Z,0.52
2023-05-01T03:21:54.811Z,0.51
2023-05-01T03:22:54.860Z,0.51
2023-05-01T03:23:54.883Z,0.52
2023-05-01T03:24:54.943Z,0.51
2023-05-01T03:25:54.954Z,0.51
2023-05-01T03:26:54.953Z,0.51
2023-05-01T03:27:55.417Z,0.51
2023-05-01T03:28:55.013Z,0.52
2023-05-01T03:29:55.206Z,0.51
2023-05-01T03:30:55.052Z,0.53
2023-05-01T03:31:55.116Z,0.52
2023-05-01T03:32:55.188Z,0.52
2023-05-01T03:33:55.140Z,0.52
2023-05-01T03:34:55.177Z,0.51
2023-05-01T03:35:55.188Z,0.51
2023-05-01T03:36:55.224Z,0.51
2023-05-01T03:37:55.253Z,0.51
2023-05-01T03:38:55.329Z,0.52
2023-05-01T03:39:55.489Z,0.51
2023-05-01T03:40:55.322Z,0.51
2023-05-01T03:41:55.352Z,0.51
2023-05-01T03:42:55.371Z,0.50
2023-05-01T03:43:55.407Z,0.52
2023-05-01T03:44:55.427Z,0.51
2023-05-01T03:45:55.503Z,0.52
2023-05-01T03:46:55.480Z,0.51
2023-05-01T03:47:55.509Z,0.51
2023-05-01T03:48:55.547Z,0.51
2023-05-01T03:49:55.768Z,0.50
2023-05-01T03:50:55.589Z,0.51
2023-05-01T03:51:55.645Z,0.50
2023-05-01T03:52:55.665Z,0.51
2023-05-01T03:53:55.689Z,0.51
2023-05-01T03:54:55.737Z,0.51
2023-05-01T03:55:55.767Z,0.51
2023-05-01T03:56:55.772Z,0.51
2023-05-01T03:57:55.806Z,0.51
2023-05-01T03:58:55.840Z,0.52
2023-05-01T04:00:54.986Z,0.51
2023-05-01T04:01:55.954Z,0.51
2023-05-01T04:02:56.186Z,0.51
2023-05-01T04:03:56.175Z,0.51
2023-05-01T04:04:56.013Z,0.51
2023-05-01T04:05:56.136Z,0.52
2023-05-01T04:06:56.101Z,0.52
2023-05-01T04:07:56.124Z,0.51
2023-05-01T04:08:56.148Z,0.51
2023-05-01T04:09:56.542Z,0.52
2023-05-01T04:10:56.245Z,0.52
2023-05-01T04:11:56.267Z,0.51
2023-05-01T04:12:56.287Z,0.51
2023-05-01T04:13:56.328Z,0.51
2023-05-01T04:14:56.353Z,0.51
2023-05-01T04:15:56.425Z,0.51
2023-05-01T04:16:56.424Z,0.51
2023-05-01T04:17:56.471Z,0.51
2023-05-01T04:18:56.485Z,0.51
2023-05-01T04:19:56.755Z,0.52
2023-05-01T04:20:56.572Z,0.52
2023-05-01T04:21:56.587Z,0.51
2023-05-01T04:22:56.623Z,0.51
2023-05-01T04:23:56.660Z,0.51
2023-05-01T04:24:56.693Z,0.50
2023-05-01T04:25:56.737Z,0.52
2023-05-01T04:26:56.807Z,0.51
2023-05-01T04:27:56.805Z,0.51
2023-05-01T04:28:56.843Z,0.51
2023-05-01T04:29:57.343Z,0.51
2023-05-01T04:30:56.905Z,0.50
2023-05-01T04:31:57.144Z,0.52
2023-05-01T04:32:57.021Z,0.53
2023-05-01T04:33:56.986Z,0.53
2023-05-01T04:34:57.021Z,0.51
2023-05-01T04:35:57.072Z,0.51
2023-05-01T04:36:57.115Z,0.51
2023-05-01T04:37:57.137Z,0.52
2023-05-01T04:38:57.165Z,0.51
2023-05-01T04:39:57.479Z,0.52
2023-05-01T04:40:57.236Z,0.51
2023-05-01T04:41:57.285Z,0.51
2023-05-01T04:42:57.344Z,0.51
2023-05-01T04:43:57.355Z,0.50
2023-05-01T04:44:57.390Z,0.52
2023-05-01T04:45:57.416Z,0.52
2023-05-01T04:46:57.534Z,0.52
2023-05-01T04:47:57.534Z,0.51
2023-05-01T04:48:57.551Z,0.51
2023-05-01T04:49:57.952Z,0.51
2023-05-01T04:50:57.629Z,0.51
2023-05-01T04:51:57.643Z,0.52
2023-05-01T04:52:57.686Z,0.52
2023-05-01T04:53:57.733Z,0.51
2023-05-01T04:54:57.794Z,0.52
2023-05-01T04:55:57.800Z,0.51
2023-05-01T04:56:57.824Z,0.51
2023-05-01T04:57:57.849Z,0.50
2023-05-01T04:58:57.914Z,0.51
2023-05-01T04:59:58.351Z,0.51
2023-05-01T05:00:57.978Z,0.50
2023-05-01T05:01:58.134Z,0.51
2023-05-01T05:02:58.112Z,0.51
2023-05-01T05:03:58.260Z,0.52
2023-05-01T05:04:58.085Z,0.51
2023-05-01T05:05:58.194Z,0.51
2023-05-01T05:06:58.159Z,0.52
2023-05-01T05:07:58.208Z,0.50
2023-05-01T05:08:58.217Z,0.52
2023-05-01T05:09:58.519Z,0.51
2023-05-01T05:10:58.290Z,0.51
2023-05-01T05:11:58.328Z,0.50
2023-05-01T05:12:58.361Z,0.51
2023-05-01T05:13:58.408Z,0.51
2023-05-01T05:14:58.454Z,0.51
2023-05-01T05:15:58.494Z,0.51
2023-05-01T05:16:58.829Z,0.51
2023-05-01T05:17:58.563Z,0.52
2023-05-01T05:18:58.570Z,0.52
2023-05-01T05:19:58.917Z,0.51
2023-05-01T05:20:58.657Z,0.52
2023-05-01T05:21:58.687Z,0.52
2023-05-01T05:22:58.733Z,0.52
2023-05-01T05:23:58.753Z,0.52
2023-05-01T05:24:58.790Z,0.52
2023-05-01T05:25:58.822Z,0.52
2023-05-01T05:26:58.870Z,0.52
2023-05-01T05:27:58.894Z,0.51
2023-05-01T05:28:58.925Z,0.52
2023-05-01T05:29:58.960Z,0.51
2023-05-01T05:30:59.024Z,0.51
2023-05-01T05:31:59.076Z,0.52
2023-05-01T05:32:59.100Z,0.52
2023-05-01T05:33:59.103Z,0.51
2023-05-01T05:34:59.134Z,0.51
2023-05-01T05:35:59.166Z,0.51
2023-05-01T05:36:59.197Z,0.51
2023-05-01T05:37:59.232Z,0.51
2023-05-01T05:38:59.262Z,0.52
2023-05-01T05:39:59.293Z,0.51
2023-05-01T05:40:59.439Z,0.51
2023-05-01T05:41:59.356Z,0.52
2023-05-01T05:42:59.393Z,0.51
2023-05-01T05:43:59.417Z,0.51
2023-05-01T05:44:59.451Z,0.51
2023-05-01T05:45:59.496Z,0.51
2023-05-01T05:46:59.546Z,0.51
2023-05-01T05:47:59.590Z,0.51
2023-05-01T05:48:59.570Z,0.51
2023-05-01T05:49:59.639Z,0.51
2023-05-01T05:50:59.629Z,0.51
2023-05-01T05:51:59.683Z,0.52
2023-05-01T05:52:59.689Z,0.51
2023-05-01T05:53:59.718Z,0.53
2023-05-01T05:54:59.747Z,0.52
2023-05-01T05:55:59.781Z,0.52
2023-05-01T05:56:59.821Z,0.53
2023-05-01T05:57:59.835Z,0.51
2023-05-01T05:58:59.868Z,0.52
2023-05-01T05:59:59.892Z,0.51
2023-05-01T06:00:59.925Z,0.51
2023-05-01T06:01:59.959Z,0.52
2023-05-01T06:03:00.092Z,0.52
2023-05-01T06:04:00.011Z,0.52
2023-05-01T06:05:00.109Z,0.51
2023-05-01T06:06:00.222Z,0.52
2023-05-01T06:07:00.176Z,0.52
2023-05-01T06:08:00.150Z,0.52
2023-05-01T06:09:00.164Z,0.51
2023-05-01T06:10:00.186Z,0.50
2023-05-01T06:11:00.223Z,0.52
2023-05-01T06:12:00.250Z,0.52
2023-05-01T06:13:13.720Z,0.52
2023-05-01T06:14:00.267Z,0.52
2023-05-01T06:15:00.262Z,0.52
2023-05-01T06:16:00.292Z,0.52
2023-05-01T06:17:00.243Z,0.52
2023-05-01T06:18:00.276Z,0.52
2023-05-01T06:19:00.286Z,0.52
2023-05-01T06:20:00.286Z,0.53
2023-05-01T06:21:00.222Z,0.52
2023-05-01T06:22:00.202Z,0.51
2023-05-01T06:23:00.193Z,0.52
2023-05-01T06:24:00.215Z,0.53
2023-05-01T06:25:00.176Z,0.52
2023-05-01T06:26:00.174Z,0.52
2023-05-01T06:27:01.454Z,0.51
2023-05-01T06:28:00.155Z,0.53
2023-05-01T06:29:00.152Z,0.52
2023-05-01T06:30:00.177Z,0.52
2023-05-01T06:31:00.313Z,0.51
2023-05-01T06:32:00.367Z,0.51
2023-05-01T06:33:00.328Z,0.52
2023-05-01T06:34:00.246Z,0.51
2023-05-01T06:35:00.295Z,0.52
2023-05-01T06:36:00.296Z,0.52
2023-05-01T06:37:00.325Z,0.52
2023-05-01T06:38:00.394Z,0.52
2023-05-01T06:39:00.373Z,0.51
2023-05-01T06:40:00.392Z,0.51
2023-05-01T06:41:00.429Z,0.51
2023-05-01T06:42:00.440Z,0.51
2023-05-01T06:43:00.470Z,0.51
2023-05-01T06:44:00.485Z,0.51
2023-05-01T06:45:00.503Z,0.51
2023-05-01T06:46:00.527Z,0.51
2023-05-01T06:47:00.613Z,0.52
2023-05-01T06:48:00.693Z,0.51
2023-05-01T06:49:59.643Z,0.51
2023-05-01T06:51:00.689Z,0.51
2023-05-01T06:52:00.705Z,0.51
2023-05-01T06:53:00.710Z,0.51
2023-05-01T06:54:00.740Z,0.51
2023-05-01T06:55:00.808Z,0.51
2023-05-01T06:56:00.802Z,0.51
2023-05-01T06:57:00.888Z,0.51
2023-05-01T06:58:02.734Z,0.51
2023-05-01T06:59:00.846Z,0.51
2023-05-01T07:00:00.830Z,0.51
2023-05-01T07:01:00.870Z,0.51
2023-05-01T07:02:00.879Z,0.51
2023-05-01T07:03:00.837Z,0.51
2023-05-01T07:04:00.803Z,0.51
2023-05-01T07:05:00.791Z,0.52
2023-05-01T07:06:00.825Z,0.51
2023-05-01T07:07:00.811Z,0.51
2023-05-01T07:08:01.866Z,0.51
2023-05-01T07:09:00.777Z,0.52
2023-05-01T07:10:00.813Z,0.51
2023-05-01T07:11:00.751Z,0.51
2023-05-01T07:12:00.741Z,0.52
2023-05-01T07:13:00.746Z,0.52
2023-05-01T07:14:00.738Z,0.52
2023-05-01T07:15:00.774Z,0.51
2023-05-01T07:16:00.798Z,0.51
2023-05-01T07:17:01.362Z,0.52
2023-05-01T07:18:00.896Z,0.51
2023-05-01T07:19:00.864Z,0.51
2023-05-01T07:20:00.884Z,0.50
2023-05-01T07:21:00.915Z,0.52
2023-05-01T07:22:00.946Z,0.51
2023-05-01T07:23:00.996Z,0.52
2023-05-01T07:24:00.989Z,0.50
2023-05-01T07:25:01.000Z,0.50
2023-05-01T07:26:01.024Z,0.51
2023-05-01T07:27:01.057Z,0.52
2023-05-01T07:28:01.069Z,0.51
2023-05-01T07:29:01.085Z,0.51
2023-05-01T07:30:01.103Z,0.52
2023-05-01T07:31:01.122Z,0.51
2023-05-01T07:32:01.196Z,0.51
2023-05-01T07:33:01.216Z,0.51
2023-05-01T07:34:01.182Z,0.51
2023-05-01T07:35:01.188Z,0.51
2023-05-01T07:36:01.204Z,0.52
2023-05-01T07:37:01.216Z,0.51
2023-05-01T07:38:01.230Z,0.51
2023-05-01T07:39:01.268Z,0.52
2023-05-01T07:40:01.288Z,0.50
2023-05-01T07:41:01.278Z,0.51
2023-05-01T07:42:01.296Z,0.51
2023-05-01T07:43:01.314Z,0.51
2023-05-01T07:44:01.328Z,0.52
2023-05-01T07:45:01.360Z,0.51
2023-05-01T07:46:01.380Z,0.51
2023-05-01T07:47:01.372Z,0.51
2023-05-01T07:48:01.388Z,0.52
2023-05-01T07:49:01.399Z,0.51
2023-05-01T07:50:01.428Z,0.51
2023-05-01T07:51:01.428Z,0.51
2023-05-01T07:52:01.451Z,0.52
2023-05-01T07:53:01.469Z,0.51
2023-05-01T07:54:01.473Z,0.52
2023-05-01T07:55:01.515Z,0.52
2023-05-01T07:56:01.510Z,0.51
2023-05-01T07:57:01.528Z,0.52
2023-05-01T07:58:01.542Z,0.51
2023-05-01T07:59:01.557Z,0.52
2023-05-01T08:00:01.557Z,0.51
2023-05-01T08:01:01.575Z,0.51
2023-05-01T08:02:01.640Z,0.51
2023-05-01T08:03:01.677Z,0.52
2023-05-01T08:04:01.697Z,0.51
2023-05-01T08:05:01.661Z,0.52
2023-05-01T08:06:01.656Z,0.51
2023-05-01T08:07:01.626Z,0.51
2023-05-01T08:08:01.638Z,0.51
2023-05-01T08:09:01.646Z,0.51
2023-05-01T08:10:01.888Z,0.52
2023-05-01T08:11:01.714Z,0.53
2023-05-01T08:12:01.697Z,0.51
2023-05-01T08:13:01.684Z,0.51
2023-05-01T08:14:01.690Z,0.52
2023-05-01T08:15:01.715Z,0.52
2023-05-01T08:16:01.745Z,0.52
2023-05-01T08:17:01.712Z,0.52
2023-05-01T08:18:01.792Z,0.51
2023-05-01T08:19:01.730Z,0.51
2023-05-01T08:20:01.737Z,0.52
2023-05-01T08:21:01.739Z,0.51
2023-05-01T08:22:01.748Z,0.52
2023-05-01T08:23:01.770Z,0.52
2023-05-01T08:24:01.766Z,0.52
2023-05-01T08:25:01.778Z,0.52
2023-05-01T08:26:01.775Z,0.52
2023-05-01T08:27:01.812Z,0.52
2023-05-01T08:28:01.817Z,0.51
2023-05-01T08:29:01.787Z,0.52
2023-05-01T08:30:01.848Z,0.52
2023-05-01T08:31:01.829Z,0.52
2023-05-01T08:32:01.823Z,0.52
2023-05-01T08:33:01.897Z,0.51
2023-05-01T08:34:01.814Z,0.51
2023-05-01T08:35:01.840Z,0.52
2023-05-01T08:36:01.821Z,0.52
2023-05-01T08:37:01.838Z,0.52
2023-05-01T08:38:01.823Z,0.52
2023-05-01T08:39:01.820Z,0.51
2023-05-01T08:40:02.601Z,0.51
2023-05-01T08:41:01.820Z,0.51
2023-05-01T08:42:01.821Z,0.52
2023-05-01T08:43:01.852Z,0.51
2023-05-01T08:44:01.826Z,0.52
2023-05-01T08:45:01.823Z,0.52
2023-05-01T08:46:01.825Z,0.51
2023-05-01T08:47:01.993Z,0.52
2023-05-01T08:48:01.942Z,0.52
2023-05-01T08:49:01.803Z,0.52
2023-05-01T08:50:01.844Z,0.52
2023-05-01T08:51:01.809Z,0.51
2023-05-01T08:52:01.794Z,0.52
2023-05-01T08:53:01.793Z,0.52
2023-05-01T08:54:01.789Z,0.51
2023-05-01T08:55:01.794Z,0.51
2023-05-01T08:56:01.780Z,0.52
2023-05-01T08:57:01.784Z,0.51
2023-05-01T08:58:01.791Z,0.51
2023-05-01T08:59:01.816Z,0.51
2023-05-01T09:00:01.763Z,0.52
2023-05-01T09:01:01.759Z,0.50
2023-05-01T09:02:01.848Z,0.52
2023-05-01T09:03:01.874Z,0.51
2023-05-01T09:04:01.819Z,0.52
2023-05-01T09:05:01.761Z,0.51
2023-05-01T09:06:01.789Z,0.52
2023-05-01T09:07:01.800Z,0.51
2023-05-01T09:08:01.760Z,0.52
2023-05-01T09:09:01.749Z,0.52
2023-05-01T09:10:01.739Z,0.53
2023-05-01T09:11:01.734Z,0.52
2023-05-01T09:12:01.745Z,0.51
2023-05-01T09:13:01.736Z,0.52
2023-05-01T09:14:01.743Z,0.52
2023-05-01T09:15:01.762Z,0.52
2023-05-01T09:16:01.825Z,0.52
2023-05-01T09:17:01.739Z,0.51
2023-05-01T09:18:03.813Z,0.52
2023-05-01T09:19:01.750Z,0.54
2023-05-01T09:20:01.735Z,0.53
2023-05-01T09:21:01.730Z,0.53
2023-05-01T09:22:01.718Z,0.53
2023-05-01T09:23:01.709Z,0.54
2023-05-01T09:24:01.714Z,0.52
2023-05-01T09:25:01.691Z,0.53
2023-05-01T09:26:01.686Z,0.54
2023-05-01T09:27:01.708Z,0.53
2023-05-01T09:28:01.688Z,0.53
2023-05-01T09:29:01.664Z,0.52
2023-05-01T09:30:01.651Z,0.53
2023-05-01T09:31:01.679Z,0.53
2023-05-01T09:32:01.657Z,0.53
2023-05-01T09:33:01.671Z,0.54
2023-05-01T09:34:01.652Z,0.53
2023-05-01T09:35:01.621Z,0.53
2023-05-01T09:36:01.624Z,0.53
2023-05-01T09:37:01.602Z,0.53
2023-05-01T09:38:01.596Z,0.53
2023-05-01T09:39:01.623Z,0.54
2023-05-01T09:40:01.590Z,0.54
2023-05-01T09:41:01.587Z,0.52
2023-05-01T09:42:01.599Z,0.53
2023-05-01T09:43:01.555Z,0.53
2023-05-01T09:44:01.616Z,0.53
2023-05-01T09:45:01.551Z,0.52
2023-05-01T09:46:01.609Z,0.53
2023-05-01T09:47:01.560Z,0.53
2023-05-01T09:48:01.598Z,0.53
2023-05-01T09:49:01.516Z,0.53
2023-05-01T09:50:01.522Z,0.53
2023-05-01T09:51:01.498Z,0.53
2023-05-01T09:52:01.488Z,0.53
2023-05-01T09:53:01.503Z,0.53
2023-05-01T09:54:01.477Z,0.54
2023-05-01T09:55:01.471Z,0.54
2023-05-01T09:56:01.469Z,0.54
2023-05-01T09:57:01.457Z,0.54
2023-05-01T09:58:01.458Z,0.54
2023-05-01T09:59:01.455Z,0.54
2023-05-01T10:00:01.436Z,0.55
2023-05-01T10:01:01.514Z,0.53
2023-05-01T10:02:01.442Z,0.54
2023-05-01T10:03:01.741Z,0.54
2023-05-01T10:04:01.483Z,0.55
2023-05-01T10:05:01.424Z,0.54
2023-05-01T10:06:01.433Z,0.54
2023-05-01T10:07:01.546Z,0.55
2023-05-01T10:08:01.386Z,0.54
2023-05-01T10:09:01.388Z,0.54
2023-05-01T10:10:01.936Z,0.54
2023-05-01T10:11:01.361Z,0.54
2023-05-01T10:12:01.357Z,0.54
2023-05-01T10:13:01.340Z,0.55
2023-05-01T10:14:01.337Z,0.54
2023-05-01T10:15:07.818Z,0.54
2023-05-01T10:16:01.387Z,0.55
2023-05-01T10:17:01.361Z,0.55
2023-05-01T10:18:01.362Z,0.55
2023-05-01T10:19:03.022Z,0.55
2023-05-01T10:20:01.291Z,0.55
2023-05-01T10:21:01.293Z,0.55
2023-05-01T10:22:01.271Z,0.55
2023-05-01T10:23:01.277Z,0.56
2023-05-01T10:24:01.256Z,0.56
2023-05-01T10:25:01.261Z,0.55
2023-05-01T10:26:02.526Z,0.57
2023-05-01T10:27:01.227Z,0.57
2023-05-01T10:28:01.220Z,0.57
2023-05-01T10:29:01.217Z,0.57
2023-05-01T10:30:01.214Z,0.57
2023-05-01T10:31:01.230Z,0.56
2023-05-01T10:32:01.238Z,0.57
2023-05-01T10:33:01.229Z,0.57
2023-05-01T10:34:01.176Z,0.57
2023-05-01T10:35:01.192Z,0.56
2023-05-01T10:36:01.167Z,0.57
2023-05-01T10:37:01.157Z,0.57
2023-05-01T10:38:01.147Z,0.56
2023-05-01T10:39:01.153Z,0.57
2023-05-01T10:40:01.158Z,0.57
2023-05-01T10:41:01.139Z,0.58
2023-05-01T10:42:01.139Z,0.57
2023-05-01T10:43:01.116Z,0.56
2023-05-01T10:44:01.102Z,0.57
2023-05-01T10:45:01.103Z,0.59
2023-05-01T10:46:01.160Z,0.56
2023-05-01T10:47:01.096Z,0.56
2023-05-01T10:48:01.128Z,0.57
2023-05-01T10:49:01.078Z,0.57
2023-05-01T10:50:01.059Z,0.58
2023-05-01T10:51:01.078Z,0.58
2023-05-01T10:52:01.043Z,0.58
2023-05-01T10:53:01.038Z,0.59
2023-05-01T10:54:01.039Z,0.59
2023-05-01T10:55:01.027Z,0.59
2023-05-01T10:56:01.024Z,0.59
2023-05-01T10:57:01.001Z,0.59
2023-05-01T10:58:00.999Z,0.58
2023-05-01T10:59:00.987Z,0.58
2023-05-01T11:00:00.976Z,0.60
2023-05-01T11:01:00.984Z,0.59
2023-05-01T11:02:01.031Z,0.60
2023-05-01T11:03:01.011Z,0.58
2023-05-01T11:04:00.949Z,0.59
2023-05-01T11:05:01.147Z,0.59
2023-05-01T11:06:01.430Z,0.59
2023-05-01T11:07:01.090Z,0.59
2023-05-01T11:08:00.923Z,0.60
2023-05-01T11:09:00.927Z,0.59
2023-05-01T11:10:00.905Z,0.59
2023-05-01T11:11:00.896Z,0.58
2023-05-01T11:12:00.903Z,0.60
2023-05-01T11:13:00.883Z,0.60
2023-05-01T11:14:00.879Z,0.60
2023-05-01T11:15:00.886Z,0.60
2023-05-01T11:16:00.898Z,0.60
2023-05-01T11:17:00.869Z,0.60
2023-05-01T11:18:00.905Z,0.60
2023-05-01T11:19:00.839Z,0.61
2023-05-01T11:20:00.834Z,0.61
2023-05-01T11:21:00.833Z,0.60
2023-05-01T11:22:00.813Z,0.59
2023-05-01T11:23:00.833Z,0.61
2023-05-01T11:24:00.797Z,0.61
2023-05-01T11:25:00.790Z,0.59
2023-05-01T11:26:00.798Z,0.61
2023-05-01T11:27:00.784Z,0.60
2023-05-01T11:28:00.787Z,0.60
2023-05-01T11:29:00.762Z,0.60
2023-05-01T11:30:00.753Z,0.60
2023-05-01T11:31:00.771Z,0.60
2023-05-01T11:32:00.810Z,0.60
2023-05-01T11:33:00.786Z,0.60
2023-05-01T11:34:00.725Z,0.60
2023-05-01T11:35:00.757Z,0.61
2023-05-01T11:36:00.707Z,0.61
2023-05-01T11:37:00.696Z,0.60
2023-05-01T11:38:00.696Z,0.60
2023-05-01T11:39:00.764Z,0.61
2023-05-01T11:40:00.722Z,0.62
2023-05-01T11:41:00.740Z,0.62
2023-05-01T11:42:00.777Z,0.61
2023-05-01T11:43:00.760Z,0.61
2023-05-01T11:44:00.754Z,0.61
2023-05-01T11:45:00.767Z,0.62
2023-05-01T11:46:00.798Z,0.62
2023-05-01T11:47:00.757Z,0.61
2023-05-01T11:48:03.545Z,0.62
2023-05-01T11:49:00.742Z,0.62
2023-05-01T11:50:00.745Z,0.62
2023-05-01T11:51:00.729Z,0.62
2023-05-01T11:52:00.734Z,0.62
2023-05-01T11:53:00.731Z,0.61
2023-05-01T11:54:00.716Z,0.62
2023-05-01T11:55:01.215Z,0.63
2023-05-01T11:56:00.696Z,0.62
2023-05-01T11:57:00.693Z,0.62
2023-05-01T11:58:00.698Z,0.62
2023-05-01T11:59:00.674Z,0.62
2023-05-01T12:00:00.678Z,0.62
2023-05-01T12:01:00.660Z,0.61
2023-05-01T12:02:00.720Z,0.61
2023-05-01T12:03:00.832Z,0.63
2023-05-01T12:04:00.684Z,0.61
2023-05-01T12:05:01.029Z,0.63
2023-05-01T12:06:00.660Z,0.62
2023-05-01T12:07:00.620Z,0.62
2023-05-01T12:08:00.614Z,0.62
2023-05-01T12:09:00.615Z,0.63
2023-05-01T12:10:00.596Z,0.62
2023-05-01T12:11:00.616Z,0.63
2023-05-01T12:12:00.586Z,0.63
2023-05-01T12:13:00.588Z,0.61
2023-05-01T12:14:00.565Z,0.62
2023-05-01T12:15:00.829Z,0.63
2023-05-01T12:16:00.555Z,0.62
2023-05-01T12:17:00.725Z,0.63
2023-05-01T12:18:00.587Z,0.63
2023-05-01T12:19:00.532Z,0.63
2023-05-01T12:20:00.532Z,0.63
2023-05-01T12:21:00.525Z,0.63
2023-05-01T12:22:00.511Z,0.64
2023-05-01T12:23:00.519Z,0.62
2023-05-01T12:24:00.500Z,0.63
2023-05-01T12:25:00.772Z,0.63
2023-05-01T12:26:00.484Z,0.63
2023-05-01T12:27:00.519Z,0.64
2023-05-01T12:28:00.488Z,0.64
2023-05-01T12:29:00.488Z,0.63
2023-05-01T12:30:00.485Z,0.62
2023-05-01T12:31:01.661Z,0.63
2023-05-01T12:32:00.526Z,0.64
2023-05-01T12:33:00.505Z,0.65
2023-05-01T12:34:00.465Z,0.66
2023-05-01T12:35:00.831Z,0.65
2023-05-01T12:36:00.440Z,0.65
2023-05-01T12:37:00.430Z,0.64
2023-05-01T12:38:00.420Z,0.64
2023-05-01T12:39:00.419Z,0.65
2023-05-01T12:40:00.403Z,0.64
2023-05-01T12:41:00.394Z,0.63
2023-05-01T12:42:00.388Z,0.64
2023-05-01T12:43:00.410Z,0.63
2023-05-01T12:44:00.380Z,0.65
2023-05-01T12:45:00.693Z,0.64
2023-05-01T12:46:00.430Z,0.64
2023-05-01T12:47:00.437Z,0.63
2023-05-01T12:48:00.396Z,0.64
2023-05-01T12:49:00.340Z,0.64
2023-05-01T12:50:00.528Z,0.63
2023-05-01T12:51:00.322Z,0.65
2023-05-01T12:52:00.321Z,0.64
2023-05-01T12:53:00.311Z,0.64
2023-05-01T12:54:00.301Z,0.65
2023-05-01T12:55:00.339Z,0.65
2023-05-01T12:56:00.288Z,0.64
2023-05-01T12:57:00.419Z,0.65
2023-05-01T12:58:00.264Z,0.63
2023-05-01T12:59:00.282Z,0.65
2023-05-01T13:00:00.550Z,0.64
2023-05-01T13:01:00.256Z,0.66
2023-05-01T13:02:00.299Z,0.65
2023-05-01T13:03:00.264Z,0.64
2023-05-01T13:04:00.229Z,0.65
2023-05-01T13:05:00.227Z,0.66
2023-05-01T13:06:00.386Z,0.65
2023-05-01T13:07:00.198Z,0.64
2023-05-01T13:08:00.226Z,0.64
2023-05-01T13:09:00.193Z,0.65
2023-05-01T13:10:00.786Z,0.65
2023-05-01T13:11:00.230Z,0.65
2023-05-01T13:12:00.165Z,0.65
2023-05-01T13:13:00.238Z,0.65
2023-05-01T13:14:00.158Z,0.66
2023-05-01T13:15:00.192Z,0.65
2023-05-01T13:16:00.169Z,0.66
2023-05-01T13:17:00.151Z,0.65
2023-05-01T13:18:00.240Z,0.66
2023-05-01T13:19:00.182Z,0.64
2023-05-01T13:20:00.762Z,0.66
2023-05-01T13:21:00.228Z,0.66